sensor_id;sensor_type;location;lat;lon;timestamp;P1;durP1;ratioP1;P2;durP2;ratioP2
55172;SDS011;41061;52.822;6.860;2023-02-16T00:00:04;61.33;;;31.38;;
55172;SDS011;41061;52.822;6.860;2023-02-16T00:02:30;56.78;;;32.38;;
55172;SDS011;41061;52.822;6.860;2023-02-16T00:04:56;60.75;;;33.10;;
55172;SDS011;41061;52.822;6.860;2023-02-16T00:07:22;59.00;;;31.73;;
55172;SDS011;41061;52.822;6.860;2023-02-16T00:09:48;58.13;;;32.22;;
55172;SDS011;41061;52.822;6.860;2023-02-16T00:12:15;58.70;;;33.58;;
55172;SDS011;41061;52.822;6.860;2023-02-16T00:15:09;56.05;;;31.95;;
55172;SDS011;41061;52.822;6.860;2023-02-16T00:17:39;55.03;;;32.15;;
55172;SDS011;41061;52.822;6.860;2023-02-16T00:20:08;60.08;;;33.40;;
55172;SDS011;41061;52.822;6.860;2023-02-16T00:22:38;56.67;;;32.53;;
55172;SDS011;41061;52.822;6.860;2023-02-16T00:25:04;58.95;;;34.70;;
55172;SDS011;41061;52.822;6.860;2023-02-16T00:27:32;60.80;;;32.88;;
55172;SDS011;41061;52.822;6.860;2023-02-16T00:29:58;63.63;;;33.95;;
55172;SDS011;41061;52.822;6.860;2023-02-16T00:32:24;61.63;;;33.47;;
55172;SDS011;41061;52.822;6.860;2023-02-16T00:34:50;60.50;;;33.95;;
55172;SDS011;41061;52.822;6.860;2023-02-16T00:37:16;59.20;;;32.72;;
55172;SDS011;41061;52.822;6.860;2023-02-16T00:39:42;62.38;;;32.10;;
55172;SDS011;41061;52.822;6.860;2023-02-16T00:42:11;64.50;;;33.42;;
55172;SDS011;41061;52.822;6.860;2023-02-16T00:47:16;58.70;;;33.22;;
55172;SDS011;41061;52.822;6.860;2023-02-16T00:49:46;58.92;;;33.75;;
55172;SDS011;41061;52.822;6.860;2023-02-16T00:54:41;63.75;;;34.53;;
55172;SDS011;41061;52.822;6.860;2023-02-16T00:57:08;61.38;;;33.55;;
55172;SDS011;41061;52.822;6.860;2023-02-16T00:59:35;57.47;;;33.75;;
55172;SDS011;41061;52.822;6.860;2023-02-16T01:02:01;62.70;;;33.65;;
55172;SDS011;41061;52.822;6.860;2023-02-16T01:04:27;63.70;;;34.17;;
55172;SDS011;41061;52.822;6.860;2023-02-16T01:06:53;68.95;;;35.05;;
55172;SDS011;41061;52.822;6.860;2023-02-16T01:09:38;65.72;;;35.03;;
55172;SDS011;41061;52.822;6.860;2023-02-16T01:12:22;60.90;;;33.22;;
55172;SDS011;41061;52.822;6.860;2023-02-16T01:14:50;62.22;;;33.97;;
55172;SDS011;41061;52.822;6.860;2023-02-16T01:17:17;63.10;;;34.80;;
55172;SDS011;41061;52.822;6.860;2023-02-16T01:19:43;60.95;;;34.45;;
55172;SDS011;41061;52.822;6.860;2023-02-16T01:22:09;60.00;;;33.63;;
55172;SDS011;41061;52.822;6.860;2023-02-16T01:24:35;66.88;;;34.22;;
55172;SDS011;41061;52.822;6.860;2023-02-16T01:27:01;60.35;;;33.85;;
55172;SDS011;41061;52.822;6.860;2023-02-16T01:29:27;58.88;;;34.05;;
55172;SDS011;41061;52.822;6.860;2023-02-16T01:31:54;68.32;;;34.30;;
55172;SDS011;41061;52.822;6.860;2023-02-16T01:34:20;68.85;;;37.03;;
55172;SDS011;41061;52.822;6.860;2023-02-16T01:36:47;70.10;;;35.75;;
55172;SDS011;41061;52.822;6.860;2023-02-16T01:39:14;67.63;;;34.55;;
55172;SDS011;41061;52.822;6.860;2023-02-16T01:46:48;61.65;;;34.63;;
55172;SDS011;41061;52.822;6.860;2023-02-16T01:49:16;64.70;;;34.95;;
55172;SDS011;41061;52.822;6.860;2023-02-16T01:51:55;65.00;;;35.38;;
55172;SDS011;41061;52.822;6.860;2023-02-16T01:56:56;65.68;;;35.88;;
55172;SDS011;41061;52.822;6.860;2023-02-16T02:02:25;71.18;;;37.28;;
55172;SDS011;41061;52.822;6.860;2023-02-16T02:04:53;69.63;;;35.85;;
55172;SDS011;41061;52.822;6.860;2023-02-16T02:07:48;67.97;;;37.20;;
55172;SDS011;41061;52.822;6.860;2023-02-16T02:10:21;71.50;;;37.15;;
55172;SDS011;41061;52.822;6.860;2023-02-16T02:12:50;69.97;;;35.08;;
55172;SDS011;41061;52.822;6.860;2023-02-16T02:15:19;64.75;;;35.88;;
55172;SDS011;41061;52.822;6.860;2023-02-16T02:17:46;70.25;;;35.75;;
55172;SDS011;41061;52.822;6.860;2023-02-16T02:33:47;60.88;;;34.63;;
55172;SDS011;41061;52.822;6.860;2023-02-16T02:36:20;68.80;;;35.80;;
55172;SDS011;41061;52.822;6.860;2023-02-16T02:41:16;66.00;;;34.92;;
55172;SDS011;41061;52.822;6.860;2023-02-16T02:43:44;65.20;;;35.40;;
55172;SDS011;41061;52.822;6.860;2023-02-16T02:48:42;70.97;;;36.60;;
55172;SDS011;41061;52.822;6.860;2023-02-16T02:51:09;73.57;;;37.25;;
55172;SDS011;41061;52.822;6.860;2023-02-16T02:54:00;65.45;;;35.83;;
55172;SDS011;41061;52.822;6.860;2023-02-16T02:56:46;67.40;;;36.67;;
55172;SDS011;41061;52.822;6.860;2023-02-16T02:59:33;65.28;;;35.92;;
55172;SDS011;41061;52.822;6.860;2023-02-16T03:02:18;64.43;;;35.03;;
55172;SDS011;41061;52.822;6.860;2023-02-16T03:04:46;72.63;;;38.38;;
55172;SDS011;41061;52.822;6.860;2023-02-16T03:07:13;70.40;;;35.90;;
55172;SDS011;41061;52.822;6.860;2023-02-16T03:09:39;74.10;;;38.13;;
55172;SDS011;41061;52.822;6.860;2023-02-16T03:12:06;78.28;;;37.50;;
55172;SDS011;41061;52.822;6.860;2023-02-16T03:14:53;72.25;;;37.95;;
55172;SDS011;41061;52.822;6.860;2023-02-16T03:17:22;69.15;;;36.75;;
55172;SDS011;41061;52.822;6.860;2023-02-16T03:20:10;69.63;;;36.60;;
55172;SDS011;41061;52.822;6.860;2023-02-16T03:25:39;70.63;;;35.70;;
55172;SDS011;41061;52.822;6.860;2023-02-16T03:28:25;72.22;;;38.22;;
55172;SDS011;41061;52.822;6.860;2023-02-16T03:31:13;71.80;;;39.40;;
55172;SDS011;41061;52.822;6.860;2023-02-16T03:33:40;75.45;;;39.05;;
55172;SDS011;41061;52.822;6.860;2023-02-16T03:36:06;75.28;;;40.08;;
55172;SDS011;41061;52.822;6.860;2023-02-16T03:38:33;77.60;;;39.65;;
55172;SDS011;41061;52.822;6.860;2023-02-16T03:40:59;71.70;;;39.30;;
55172;SDS011;41061;52.822;6.860;2023-02-16T03:43:25;74.72;;;39.10;;
55172;SDS011;41061;52.822;6.860;2023-02-16T03:45:51;74.75;;;39.83;;
55172;SDS011;41061;52.822;6.860;2023-02-16T03:48:17;76.93;;;42.33;;
55172;SDS011;41061;52.822;6.860;2023-02-16T03:50:44;72.38;;;39.20;;
55172;SDS011;41061;52.822;6.860;2023-02-16T03:53:10;76.13;;;40.65;;
55172;SDS011;41061;52.822;6.860;2023-02-16T03:55:40;74.72;;;39.58;;
55172;SDS011;41061;52.822;6.860;2023-02-16T03:58:07;74.45;;;40.13;;
55172;SDS011;41061;52.822;6.860;2023-02-16T04:00:34;80.38;;;40.40;;
55172;SDS011;41061;52.822;6.860;2023-02-16T04:03:00;79.63;;;41.17;;
55172;SDS011;41061;52.822;6.860;2023-02-16T04:05:26;72.20;;;41.90;;
55172;SDS011;41061;52.822;6.860;2023-02-16T04:07:52;75.47;;;40.13;;
55172;SDS011;41061;52.822;6.860;2023-02-16T04:10:19;76.13;;;40.85;;
55172;SDS011;41061;52.822;6.860;2023-02-16T04:12:45;72.13;;;40.83;;
55172;SDS011;41061;52.822;6.860;2023-02-16T04:15:12;75.75;;;40.50;;
55172;SDS011;41061;52.822;6.860;2023-02-16T04:17:38;78.88;;;43.03;;
55172;SDS011;41061;52.822;6.860;2023-02-16T04:20:07;79.40;;;41.53;;
55172;SDS011;41061;52.822;6.860;2023-02-16T04:22:33;76.22;;;41.63;;
55172;SDS011;41061;52.822;6.860;2023-02-16T04:24:59;81.35;;;43.38;;
55172;SDS011;41061;52.822;6.860;2023-02-16T04:27:25;78.53;;;41.45;;
55172;SDS011;41061;52.822;6.860;2023-02-16T04:29:51;78.40;;;42.63;;
55172;SDS011;41061;52.822;6.860;2023-02-16T04:32:17;72.82;;;42.25;;
55172;SDS011;41061;52.822;6.860;2023-02-16T04:34:43;74.43;;;41.10;;
55172;SDS011;41061;52.822;6.860;2023-02-16T04:37:10;79.68;;;42.92;;
55172;SDS011;41061;52.822;6.860;2023-02-16T04:39:36;76.10;;;42.75;;
55172;SDS011;41061;52.822;6.860;2023-02-16T04:42:02;73.40;;;41.38;;
55172;SDS011;41061;52.822;6.860;2023-02-16T04:44:28;73.22;;;40.47;;
55172;SDS011;41061;52.822;6.860;2023-02-16T04:46:55;77.45;;;43.92;;
55172;SDS011;41061;52.822;6.860;2023-02-16T04:49:21;79.97;;;43.55;;
55172;SDS011;41061;52.822;6.860;2023-02-16T04:51:47;77.85;;;42.80;;
55172;SDS011;41061;52.822;6.860;2023-02-16T04:54:13;76.32;;;42.72;;
55172;SDS011;41061;52.822;6.860;2023-02-16T04:56:42;72.47;;;41.63;;
55172;SDS011;41061;52.822;6.860;2023-02-16T04:59:08;77.78;;;43.05;;
55172;SDS011;41061;52.822;6.860;2023-02-16T05:01:34;77.78;;;43.17;;
55172;SDS011;41061;52.822;6.860;2023-02-16T05:04:00;81.88;;;42.67;;
55172;SDS011;41061;52.822;6.860;2023-02-16T05:06:26;76.40;;;41.97;;
55172;SDS011;41061;52.822;6.860;2023-02-16T05:08:52;75.03;;;42.20;;
55172;SDS011;41061;52.822;6.860;2023-02-16T05:11:18;73.82;;;41.10;;
55172;SDS011;41061;52.822;6.860;2023-02-16T05:14:02;74.53;;;41.05;;
55172;SDS011;41061;52.822;6.860;2023-02-16T05:16:47;74.75;;;40.83;;
55172;SDS011;41061;52.822;6.860;2023-02-16T05:19:14;74.13;;;43.17;;
55172;SDS011;41061;52.822;6.860;2023-02-16T05:21:40;71.78;;;41.70;;
55172;SDS011;41061;52.822;6.860;2023-02-16T05:24:07;78.43;;;43.55;;
55172;SDS011;41061;52.822;6.860;2023-02-16T05:26:34;74.63;;;41.65;;
55172;SDS011;41061;52.822;6.860;2023-02-16T05:29:01;72.65;;;42.95;;
55172;SDS011;41061;52.822;6.860;2023-02-16T05:31:27;70.40;;;39.17;;
55172;SDS011;41061;52.822;6.860;2023-02-16T05:33:54;80.22;;;42.97;;
55172;SDS011;41061;52.822;6.860;2023-02-16T05:36:20;74.63;;;41.30;;
55172;SDS011;41061;52.822;6.860;2023-02-16T05:38:46;79.75;;;42.65;;
55172;SDS011;41061;52.822;6.860;2023-02-16T05:41:13;76.00;;;41.97;;
55172;SDS011;41061;52.822;6.860;2023-02-16T05:43:57;80.88;;;42.60;;
55172;SDS011;41061;52.822;6.860;2023-02-16T05:46:24;76.40;;;42.20;;
55172;SDS011;41061;52.822;6.860;2023-02-16T05:48:50;77.00;;;41.83;;
55172;SDS011;41061;52.822;6.860;2023-02-16T05:51:17;73.28;;;41.05;;
55172;SDS011;41061;52.822;6.860;2023-02-16T05:53:43;70.85;;;41.92;;
55172;SDS011;41061;52.822;6.860;2023-02-16T05:56:09;78.93;;;41.97;;
55172;SDS011;41061;52.822;6.860;2023-02-16T05:58:35;77.93;;;42.92;;
55172;SDS011;41061;52.822;6.860;2023-02-16T06:01:02;78.60;;;42.90;;
55172;SDS011;41061;52.822;6.860;2023-02-16T06:03:28;73.78;;;42.95;;
55172;SDS011;41061;52.822;6.860;2023-02-16T06:05:55;76.13;;;41.30;;
55172;SDS011;41061;52.822;6.860;2023-02-16T06:08:21;75.15;;;42.03;;
55172;SDS011;41061;52.822;6.860;2023-02-16T06:10:48;81.05;;;43.63;;
55172;SDS011;41061;52.822;6.860;2023-02-16T06:13:14;70.53;;;41.17;;
55172;SDS011;41061;52.822;6.860;2023-02-16T06:15:40;77.63;;;43.33;;
55172;SDS011;41061;52.822;6.860;2023-02-16T06:18:07;70.57;;;41.40;;
55172;SDS011;41061;52.822;6.860;2023-02-16T06:20:35;71.63;;;40.88;;
55172;SDS011;41061;52.822;6.860;2023-02-16T06:23:01;78.22;;;41.25;;
55172;SDS011;41061;52.822;6.860;2023-02-16T06:25:28;70.05;;;40.47;;
55172;SDS011;41061;52.822;6.860;2023-02-16T06:27:54;75.88;;;40.30;;
55172;SDS011;41061;52.822;6.860;2023-02-16T06:30:21;68.80;;;41.08;;
55172;SDS011;41061;52.822;6.860;2023-02-16T06:32:48;76.85;;;41.65;;
55172;SDS011;41061;52.822;6.860;2023-02-16T06:35:14;73.32;;;42.63;;
55172;SDS011;41061;52.822;6.860;2023-02-16T06:37:40;70.53;;;41.20;;
55172;SDS011;41061;52.822;6.860;2023-02-16T06:40:07;73.22;;;41.15;;
55172;SDS011;41061;52.822;6.860;2023-02-16T06:42:34;73.45;;;42.05;;
55172;SDS011;41061;52.822;6.860;2023-02-16T06:45:00;74.45;;;41.85;;
55172;SDS011;41061;52.822;6.860;2023-02-16T06:47:27;71.72;;;40.70;;
55172;SDS011;41061;52.822;6.860;2023-02-16T06:49:53;79.18;;;40.75;;
55172;SDS011;41061;52.822;6.860;2023-02-16T06:52:19;67.85;;;39.67;;
55172;SDS011;41061;52.822;6.860;2023-02-16T06:54:45;73.72;;;41.75;;
55172;SDS011;41061;52.822;6.860;2023-02-16T06:57:11;69.65;;;40.15;;
55172;SDS011;41061;52.822;6.860;2023-02-16T06:59:37;67.85;;;39.95;;
55172;SDS011;41061;52.822;6.860;2023-02-16T07:02:03;72.32;;;40.08;;
55172;SDS011;41061;52.822;6.860;2023-02-16T07:04:30;71.50;;;41.65;;
55172;SDS011;41061;52.822;6.860;2023-02-16T07:06:56;70.88;;;42.47;;
55172;SDS011;41061;52.822;6.860;2023-02-16T07:09:22;71.57;;;40.08;;
55172;SDS011;41061;52.822;6.860;2023-02-16T07:11:48;73.70;;;41.80;;
55172;SDS011;41061;52.822;6.860;2023-02-16T07:14:14;71.00;;;40.30;;
55172;SDS011;41061;52.822;6.860;2023-02-16T07:16:41;72.13;;;42.00;;
55172;SDS011;41061;52.822;6.860;2023-02-16T07:19:07;70.18;;;40.53;;
55172;SDS011;41061;52.822;6.860;2023-02-16T07:21:33;78.15;;;43.50;;
55172;SDS011;41061;52.822;6.860;2023-02-16T07:23:59;73.53;;;40.20;;
55172;SDS011;41061;52.822;6.860;2023-02-16T07:26:26;65.35;;;40.33;;
55172;SDS011;41061;52.822;6.860;2023-02-16T07:28:52;68.25;;;40.58;;
55172;SDS011;41061;52.822;6.860;2023-02-16T07:31:18;70.95;;;40.33;;
55172;SDS011;41061;52.822;6.860;2023-02-16T07:33:45;65.40;;;39.92;;
55172;SDS011;41061;52.822;6.860;2023-02-16T07:36:12;69.22;;;41.83;;
55172;SDS011;41061;52.822;6.860;2023-02-16T07:38:38;73.25;;;42.10;;
55172;SDS011;41061;52.822;6.860;2023-02-16T07:41:07;72.28;;;43.03;;
55172;SDS011;41061;52.822;6.860;2023-02-16T07:43:33;70.35;;;41.17;;
55172;SDS011;41061;52.822;6.860;2023-02-16T07:46:00;72.88;;;42.03;;
55172;SDS011;41061;52.822;6.860;2023-02-16T07:48:26;73.53;;;41.85;;
55172;SDS011;41061;52.822;6.860;2023-02-16T07:50:52;74.38;;;42.30;;
55172;SDS011;41061;52.822;6.860;2023-02-16T07:53:18;68.10;;;40.60;;
55172;SDS011;41061;52.822;6.860;2023-02-16T07:55:45;75.95;;;42.95;;
55172;SDS011;41061;52.822;6.860;2023-02-16T07:58:11;68.57;;;39.30;;
55172;SDS011;41061;52.822;6.860;2023-02-16T08:01:09;71.88;;;42.60;;
55172;SDS011;41061;52.822;6.860;2023-02-16T08:03:36;70.82;;;41.25;;
55172;SDS011;41061;52.822;6.860;2023-02-16T08:06:02;69.85;;;40.90;;
55172;SDS011;41061;52.822;6.860;2023-02-16T08:08:29;71.05;;;42.20;;
55172;SDS011;41061;52.822;6.860;2023-02-16T08:10:55;68.55;;;41.55;;
55172;SDS011;41061;52.822;6.860;2023-02-16T08:13:22;67.95;;;42.40;;
55172;SDS011;41061;52.822;6.860;2023-02-16T08:15:48;74.90;;;41.42;;
55172;SDS011;41061;52.822;6.860;2023-02-16T08:18:14;67.78;;;39.67;;
55172;SDS011;41061;52.822;6.860;2023-02-16T08:20:40;69.70;;;42.10;;
55172;SDS011;41061;52.822;6.860;2023-02-16T08:23:06;65.95;;;40.10;;
55172;SDS011;41061;52.822;6.860;2023-02-16T08:25:34;68.97;;;41.25;;
55172;SDS011;41061;52.822;6.860;2023-02-16T08:28:00;71.53;;;42.38;;
55172;SDS011;41061;52.822;6.860;2023-02-16T08:30:26;68.75;;;41.90;;
55172;SDS011;41061;52.822;6.860;2023-02-16T08:32:52;78.75;;;44.63;;
55172;SDS011;41061;52.822;6.860;2023-02-16T08:35:24;73.18;;;41.95;;
55172;SDS011;41061;52.822;6.860;2023-02-16T08:37:51;68.15;;;41.78;;
55172;SDS011;41061;52.822;6.860;2023-02-16T08:40:17;77.10;;;42.10;;
55172;SDS011;41061;52.822;6.860;2023-02-16T08:42:48;72.63;;;41.97;;
55172;SDS011;41061;52.822;6.860;2023-02-16T08:45:14;72.10;;;42.83;;
55172;SDS011;41061;52.822;6.860;2023-02-16T08:47:40;74.75;;;42.33;;
55172;SDS011;41061;52.822;6.860;2023-02-16T08:50:06;69.93;;;43.30;;
55172;SDS011;41061;52.822;6.860;2023-02-16T08:52:32;70.05;;;41.70;;
55172;SDS011;41061;52.822;6.860;2023-02-16T08:54:59;76.45;;;42.53;;
55172;SDS011;41061;52.822;6.860;2023-02-16T08:57:25;73.15;;;43.53;;
55172;SDS011;41061;52.822;6.860;2023-02-16T08:59:51;75.43;;;43.17;;
55172;SDS011;41061;52.822;6.860;2023-02-16T09:02:37;75.65;;;43.92;;
55172;SDS011;41061;52.822;6.860;2023-02-16T09:05:04;76.63;;;43.00;;
55172;SDS011;41061;52.822;6.860;2023-02-16T09:07:30;71.75;;;42.22;;
55172;SDS011;41061;52.822;6.860;2023-02-16T09:09:59;73.22;;;44.05;;
55172;SDS011;41061;52.822;6.860;2023-02-16T09:12:25;73.35;;;44.08;;
55172;SDS011;41061;52.822;6.860;2023-02-16T09:14:54;78.07;;;43.58;;
55172;SDS011;41061;52.822;6.860;2023-02-16T09:17:20;71.72;;;42.72;;
55172;SDS011;41061;52.822;6.860;2023-02-16T09:19:46;75.07;;;43.33;;
55172;SDS011;41061;52.822;6.860;2023-02-16T09:22:12;72.22;;;41.70;;
55172;SDS011;41061;52.822;6.860;2023-02-16T09:24:39;78.80;;;43.13;;
55172;SDS011;41061;52.822;6.860;2023-02-16T09:27:05;79.22;;;43.90;;
55172;SDS011;41061;52.822;6.860;2023-02-16T09:29:31;72.03;;;43.30;;
55172;SDS011;41061;52.822;6.860;2023-02-16T09:31:58;79.38;;;45.15;;
55172;SDS011;41061;52.822;6.860;2023-02-16T09:34:24;76.03;;;43.78;;
55172;SDS011;41061;52.822;6.860;2023-02-16T09:36:51;81.95;;;44.70;;
55172;SDS011;41061;52.822;6.860;2023-02-16T09:39:17;72.35;;;43.55;;
55172;SDS011;41061;52.822;6.860;2023-02-16T09:46:48;78.00;;;43.53;;
55172;SDS011;41061;52.822;6.860;2023-02-16T09:54:34;66.82;;;41.42;;
55172;SDS011;41061;52.822;6.860;2023-02-16T09:57:06;76.95;;;43.53;;
55172;SDS011;41061;52.822;6.860;2023-02-16T10:02:21;75.28;;;43.85;;
55172;SDS011;41061;52.822;6.860;2023-02-16T10:07:30;74.47;;;43.85;;
55172;SDS011;41061;52.822;6.860;2023-02-16T10:09:57;78.32;;;46.28;;
55172;SDS011;41061;52.822;6.860;2023-02-16T10:12:28;76.18;;;44.63;;
55172;SDS011;41061;52.822;6.860;2023-02-16T10:15:01;78.35;;;45.30;;
55172;SDS011;41061;52.822;6.860;2023-02-16T10:22:31;75.32;;;45.28;;
55172;SDS011;41061;52.822;6.860;2023-02-16T10:25:20;73.90;;;46.05;;
55172;SDS011;41061;52.822;6.860;2023-02-16T10:27:56;74.60;;;45.72;;
55172;SDS011;41061;52.822;6.860;2023-02-16T10:30:28;74.30;;;44.45;;
55172;SDS011;41061;52.822;6.860;2023-02-16T10:33:03;79.75;;;47.63;;
55172;SDS011;41061;52.822;6.860;2023-02-16T10:35:44;81.68;;;46.95;;
55172;SDS011;41061;52.822;6.860;2023-02-16T10:40:45;75.18;;;45.47;;
55172;SDS011;41061;52.822;6.860;2023-02-16T10:43:20;80.72;;;45.90;;
55172;SDS011;41061;52.822;6.860;2023-02-16T10:45:53;78.90;;;45.58;;
55172;SDS011;41061;52.822;6.860;2023-02-16T10:48:23;82.20;;;47.75;;
55172;SDS011;41061;52.822;6.860;2023-02-16T10:51:05;82.70;;;47.00;;
55172;SDS011;41061;52.822;6.860;2023-02-16T10:56:00;77.70;;;44.67;;
55172;SDS011;41061;52.822;6.860;2023-02-16T10:58:36;82.43;;;46.53;;
55172;SDS011;41061;52.822;6.860;2023-02-16T11:01:08;79.72;;;46.05;;
55172;SDS011;41061;52.822;6.860;2023-02-16T11:03:38;77.78;;;46.33;;
55172;SDS011;41061;52.822;6.860;2023-02-16T11:06:16;78.72;;;45.58;;
55172;SDS011;41061;52.822;6.860;2023-02-16T11:08:52;81.45;;;46.67;;
55172;SDS011;41061;52.822;6.860;2023-02-16T11:11:23;76.40;;;46.20;;
55172;SDS011;41061;52.822;6.860;2023-02-16T11:13:55;85.28;;;49.45;;
55172;SDS011;41061;52.822;6.860;2023-02-16T11:16:22;81.00;;;48.22;;
55172;SDS011;41061;52.822;6.860;2023-02-16T11:18:59;80.47;;;46.95;;
55172;SDS011;41061;52.822;6.860;2023-02-16T11:24:12;80.80;;;45.33;;
55172;SDS011;41061;52.822;6.860;2023-02-16T11:26:39;88.00;;;48.95;;
55172;SDS011;41061;52.822;6.860;2023-02-16T11:29:26;80.13;;;46.63;;
55172;SDS011;41061;52.822;6.860;2023-02-16T11:36:59;89.97;;;49.03;;
55172;SDS011;41061;52.822;6.860;2023-02-16T11:39:26;77.13;;;45.80;;
55172;SDS011;41061;52.822;6.860;2023-02-16T11:41:56;78.18;;;46.75;;
55172;SDS011;41061;52.822;6.860;2023-02-16T11:46:54;81.60;;;47.63;;
55172;SDS011;41061;52.822;6.860;2023-02-16T11:49:34;82.40;;;46.25;;
55172;SDS011;41061;52.822;6.860;2023-02-16T11:52:16;81.47;;;47.00;;
55172;SDS011;41061;52.822;6.860;2023-02-16T11:54:55;92.97;;;48.45;;
55172;SDS011;41061;52.822;6.860;2023-02-16T11:57:26;76.18;;;45.63;;
55172;SDS011;41061;52.822;6.860;2023-02-16T11:59:53;83.43;;;47.35;;
55172;SDS011;41061;52.822;6.860;2023-02-16T12:02:25;82.50;;;47.38;;
55172;SDS011;41061;52.822;6.860;2023-02-16T12:07:49;80.90;;;47.38;;
55172;SDS011;41061;52.822;6.860;2023-02-16T12:12:46;79.70;;;48.05;;
55172;SDS011;41061;52.822;6.860;2023-02-16T12:44:01;75.55;;;45.13;;
55172;SDS011;41061;52.822;6.860;2023-02-16T12:46:35;76.78;;;45.95;;
55172;SDS011;41061;52.822;6.860;2023-02-16T12:49:05;75.40;;;44.33;;
55172;SDS011;41061;52.822;6.860;2023-02-16T12:51:37;74.38;;;46.65;;
55172;SDS011;41061;52.822;6.860;2023-02-16T12:54:23;69.38;;;45.55;;
55172;SDS011;41061;52.822;6.860;2023-02-16T12:56:53;69.40;;;42.80;;
55172;SDS011;41061;52.822;6.860;2023-02-16T13:01:54;67.32;;;42.13;;
55172;SDS011;41061;52.822;6.860;2023-02-16T13:04:37;69.07;;;43.60;;
55172;SDS011;41061;52.822;6.860;2023-02-16T13:07:16;67.90;;;42.67;;
55172;SDS011;41061;52.822;6.860;2023-02-16T13:12:53;64.80;;;39.88;;
55172;SDS011;41061;52.822;6.860;2023-02-16T13:15:22;63.15;;;40.47;;
55172;SDS011;41061;52.822;6.860;2023-02-16T13:17:56;62.63;;;40.42;;
55172;SDS011;41061;52.822;6.860;2023-02-16T13:20:23;61.50;;;38.33;;
55172;SDS011;41061;52.822;6.860;2023-02-16T13:22:55;62.45;;;40.58;;
55172;SDS011;41061;52.822;6.860;2023-02-16T13:33:06;59.70;;;39.22;;
55172;SDS011;41061;52.822;6.860;2023-02-16T13:43:21;53.80;;;36.63;;
55172;SDS011;41061;52.822;6.860;2023-02-16T13:45:51;62.22;;;39.05;;
55172;SDS011;41061;52.822;6.860;2023-02-16T13:51:04;61.95;;;39.67;;
55172;SDS011;41061;52.822;6.860;2023-02-16T13:53:35;57.72;;;39.70;;
55172;SDS011;41061;52.822;6.860;2023-02-16T13:56:14;54.72;;;38.28;;
55172;SDS011;41061;52.822;6.860;2023-02-16T13:58:41;64.72;;;41.03;;
55172;SDS011;41061;52.822;6.860;2023-02-16T14:03:52;60.65;;;40.85;;
55172;SDS011;41061;52.822;6.860;2023-02-16T14:06:37;57.88;;;39.15;;
55172;SDS011;41061;52.822;6.860;2023-02-16T14:15:04;63.13;;;38.83;;
55172;SDS011;41061;52.822;6.860;2023-02-16T14:22:20;63.13;;;40.03;;
55172;SDS011;41061;52.822;6.860;2023-02-16T14:24:50;65.93;;;40.97;;
55172;SDS011;41061;52.822;6.860;2023-02-16T14:27:38;66.35;;;41.90;;
55172;SDS011;41061;52.822;6.860;2023-02-16T14:30:03;65.20;;;41.38;;
55172;SDS011;41061;52.822;6.860;2023-02-16T14:32:31;69.00;;;42.47;;
55172;SDS011;41061;52.822;6.860;2023-02-16T14:35:15;62.38;;;40.10;;
55172;SDS011;41061;52.822;6.860;2023-02-16T14:37:53;62.22;;;40.47;;
55172;SDS011;41061;52.822;6.860;2023-02-16T14:43:14;61.22;;;38.90;;
55172;SDS011;41061;52.822;6.860;2023-02-16T14:46:06;63.97;;;40.25;;
55172;SDS011;41061;52.822;6.860;2023-02-16T14:48:58;57.85;;;38.15;;
55172;SDS011;41061;52.822;6.860;2023-02-16T14:51:41;60.50;;;40.47;;
55172;SDS011;41061;52.822;6.860;2023-02-16T14:57:00;59.50;;;38.50;;
55172;SDS011;41061;52.822;6.860;2023-02-16T15:01:59;63.40;;;39.90;;
55172;SDS011;41061;52.822;6.860;2023-02-16T15:04:29;57.60;;;38.92;;
55172;SDS011;41061;52.822;6.860;2023-02-16T15:06:56;66.60;;;39.35;;
55172;SDS011;41061;52.822;6.860;2023-02-16T15:09:24;63.58;;;38.50;;
55172;SDS011;41061;52.822;6.860;2023-02-16T15:11:53;57.63;;;38.67;;
55172;SDS011;41061;52.822;6.860;2023-02-16T15:14:42;62.72;;;39.75;;
55172;SDS011;41061;52.822;6.860;2023-02-16T15:17:09;59.42;;;38.53;;
55172;SDS011;41061;52.822;6.860;2023-02-16T15:19:38;63.22;;;39.53;;
55172;SDS011;41061;52.822;6.860;2023-02-16T15:22:21;58.15;;;39.13;;
55172;SDS011;41061;52.822;6.860;2023-02-16T15:24:58;58.75;;;41.00;;
55172;SDS011;41061;52.822;6.860;2023-02-16T15:27:25;63.33;;;41.13;;
55172;SDS011;41061;52.822;6.860;2023-02-16T15:30:06;60.95;;;38.88;;
55172;SDS011;41061;52.822;6.860;2023-02-16T15:32:33;63.00;;;39.25;;
55172;SDS011;41061;52.822;6.860;2023-02-16T15:35:08;58.63;;;39.92;;
55172;SDS011;41061;52.822;6.860;2023-02-16T15:37:34;59.45;;;38.72;;
55172;SDS011;41061;52.822;6.860;2023-02-16T15:40:15;60.50;;;39.30;;
55172;SDS011;41061;52.822;6.860;2023-02-16T15:42:49;65.18;;;39.85;;
55172;SDS011;41061;52.822;6.860;2023-02-16T15:45:27;62.67;;;40.28;;
55172;SDS011;41061;52.822;6.860;2023-02-16T15:48:06;59.72;;;37.63;;
55172;SDS011;41061;52.822;6.860;2023-02-16T15:50:37;61.47;;;38.90;;
55172;SDS011;41061;52.822;6.860;2023-02-16T15:53:03;60.50;;;38.03;;
55172;SDS011;41061;52.822;6.860;2023-02-16T15:55:30;61.47;;;39.03;;
55172;SDS011;41061;52.822;6.860;2023-02-16T15:57:57;69.00;;;39.55;;
55172;SDS011;41061;52.822;6.860;2023-02-16T16:00:24;59.83;;;38.40;;
55172;SDS011;41061;52.822;6.860;2023-02-16T16:02:52;61.15;;;38.78;;
55172;SDS011;41061;52.822;6.860;2023-02-16T16:07:48;62.95;;;37.75;;
55172;SDS011;41061;52.822;6.860;2023-02-16T16:15:18;61.20;;;38.22;;
55172;SDS011;41061;52.822;6.860;2023-02-16T16:17:47;65.00;;;38.40;;
55172;SDS011;41061;52.822;6.860;2023-02-16T16:20:17;60.45;;;39.10;;
55172;SDS011;41061;52.822;6.860;2023-02-16T16:22:56;59.47;;;38.30;;
55172;SDS011;41061;52.822;6.860;2023-02-16T16:25:36;61.38;;;37.78;;
55172;SDS011;41061;52.822;6.860;2023-02-16T16:28:04;62.83;;;38.08;;
55172;SDS011;41061;52.822;6.860;2023-02-16T16:30:34;58.53;;;36.83;;
55172;SDS011;41061;52.822;6.860;2023-02-16T16:33:01;57.58;;;35.45;;
55172;SDS011;41061;52.822;6.860;2023-02-16T16:35:42;50.60;;;34.90;;
55172;SDS011;41061;52.822;6.860;2023-02-16T16:38:27;55.78;;;32.97;;
55172;SDS011;41061;52.822;6.860;2023-02-16T16:40:54;61.20;;;34.75;;
55172;SDS011;41061;52.822;6.860;2023-02-16T16:43:29;56.22;;;34.47;;
55172;SDS011;41061;52.822;6.860;2023-02-16T16:48:43;55.58;;;33.78;;
55172;SDS011;41061;52.822;6.860;2023-02-16T16:51:15;54.80;;;33.53;;
55172;SDS011;41061;52.822;6.860;2023-02-16T16:53:57;50.58;;;33.33;;
55172;SDS011;41061;52.822;6.860;2023-02-16T16:56:28;52.15;;;33.03;;
55172;SDS011;41061;52.822;6.860;2023-02-16T16:58:56;57.00;;;34.13;;
55172;SDS011;41061;52.822;6.860;2023-02-16T17:01:23;55.70;;;33.28;;
55172;SDS011;41061;52.822;6.860;2023-02-16T17:03:49;52.08;;;33.50;;
55172;SDS011;41061;52.822;6.860;2023-02-16T17:06:16;55.35;;;34.97;;
55172;SDS011;41061;52.822;6.860;2023-02-16T17:08:42;53.53;;;34.80;;
55172;SDS011;41061;52.822;6.860;2023-02-16T17:13:41;55.85;;;33.38;;
55172;SDS011;41061;52.822;6.860;2023-02-16T17:16:09;59.33;;;36.10;;
55172;SDS011;41061;52.822;6.860;2023-02-16T17:18:37;56.47;;;33.85;;
55172;SDS011;41061;52.822;6.860;2023-02-16T17:21:03;53.50;;;32.95;;